Airport View

Enter AWOS ICAO identifier for current METAR.

ex. KFNL

KTME 220010Z AUTO 15011KT 10SM CLR 29/22 A3000 RMK AO2

22 Sep 2019 00:11

Frequency: 119.525

Phone: 281-945-5451

Other Area AWOS: KIWS - KSGR - KDWH - KELA

TAF KSGR 212337Z 2200/2224 13008KT P6SM SCT025 SCT250 TEMPO 2214/2216 BKN025 FM221600 14010KT P6SM VCSH SCT025 BKN035 FM222100 15010KT P6SM SCT040 BKN250